Dades meteomassalio
Diari Summary for Febrer 10, 2018 Units:  Both    English   Metric
« Previous Day
Next Day »
Diari Semanal Mensual Anual Personalitzat
  Maxima: Minima: Mijana:
Temperatura: TemperatureF °F /  -17.8 °C 37.0 °F /  2.8 °C 41.7 °F /  5.4 °C
Rosada: DewpointF °F /  -17.8 °C 29.8 °F /  -1.2 °C 32.6 °F /  0.3 °C
Humitat: Humidity % 54 % 70 %
Velocitat del vent: WindSpeedMPH mph /  0 km/h - 20.2 mph /  32.5 km/h
Racha vent: WindSpeedGustMPH mph /  0 km/h - -
Vent:- - WNW
Pressio: PressureIn in /  0 hPa 30.14 in /  1020.5 hPa -
Pluja: 0.00 in /  0 mm    
Historical Graphs
 
 
Tabular Data for Febrer 10, 2018
Time Temperature Dew Point Pressure Wind Wind Speed Wind Gust Humidity Rainfall Rate (Hourly) solar Conditions
TemperatureF °F /  -17.8 °C DewpointF °F /  -17.8 °C PressureIn in /  0 hPa Calm     Humidity % HourlyPrecipIn in /  0 mm SolarRadiationWatts/m^2 W/m2 Conditions
00:04 41.0 °F /  5 °C 35.0 °F /  1.7 °C 30.19 in /  1022.2 hPa NNW 21.0 mph /  33.8 km/h 21.0 mph /  33.8 km/h 79 % 0.00 in /  0 mm 0.0 W/m2 RA
00:09 41.0 °F /  5 °C 35.0 °F /  1.7 °C 30.20 in /  1022.6 hPa NNW 26.5 mph /  42.6 km/h 26.5 mph /  42.6 km/h 79 % 0.00 in /  0 mm 0.0 W/m2 CLR
00:14 41.0 °F /  5 °C 35.0 °F /  1.7 °C 30.20 in /  1022.6 hPa NW 15.0 mph /  24.1 km/h 15.0 mph /  24.1 km/h 79 % 0.00 in /  0 mm 0.0 W/m2 CLR
00:19 41.0 °F /  5 °C 34.7 °F /  1.5 °C 30.20 in /  1022.6 hPa NNW 23.0 mph /  37 km/h 23.0 mph /  37 km/h 78 % 0.00 in /  0 mm 0.0 W/m2 CLR
00:24 41.0 °F /  5 °C 34.3 °F /  1.3 °C 30.21 in /  1022.9 hPa North 25.0 mph /  40.2 km/h 25.0 mph /  40.2 km/h 77 % 0.00 in /  0 mm 0.0 W/m2 CLR
00:29 41.0 °F /  5 °C 34.0 °F /  1.1 °C 30.21 in /  1022.9 hPa NNW 21.9 mph /  35.2 km/h 21.9 mph /  35.2 km/h 76 % 0.00 in /  0 mm 0.0 W/m2 CLR
00:34 40.0 °F /  4.4 °C 33.0 °F /  0.6 °C 30.21 in /  1022.9 hPa North 22.0 mph /  35.4 km/h 22.0 mph /  35.4 km/h 76 % 0.00 in /  0 mm 0.0 W/m2 CLR
00:39 40.0 °F /  4.4 °C 32.7 °F /  0.4 °C 30.21 in /  1022.9 hPa North 21.9 mph /  35.2 km/h 21.9 mph /  35.2 km/h 75 % 0.00 in /  0 mm 0.0 W/m2 CLR
00:44 40.0 °F /  4.4 °C 32.7 °F /  0.4 °C 30.21 in /  1022.9 hPa NNW 21.0 mph /  33.8 km/h 21.0 mph /  33.8 km/h 75 % 0.00 in /  0 mm 0.0 W/m2 CLR
00:49 40.0 °F /  4.4 °C 32.7 °F /  0.4 °C 30.21 in /  1022.9 hPa NNW 20.7 mph /  33.3 km/h 20.7 mph /  33.3 km/h 75 % 0.00 in /  0 mm 0.0 W/m2 CLR
00:54 40.0 °F /  4.4 °C 32.7 °F /  0.4 °C 30.21 in /  1022.9 hPa NW 28.8 mph /  46.3 km/h 28.8 mph /  46.3 km/h 75 % 0.00 in /  0 mm 0.0 W/m2 CLR
00:59 40.0 °F /  4.4 °C 32.7 °F /  0.4 °C 30.21 in /  1022.9 hPa NNW 23.0 mph /  37 km/h 23.0 mph /  37 km/h 75 % 0.00 in /  0 mm 0.0 W/m2 CLR
01:04 40.0 °F /  4.4 °C 32.7 °F /  0.4 °C 30.21 in /  1022.9 hPa NW 25.3 mph /  40.7 km/h 25.3 mph /  40.7 km/h 75 % 0.00 in /  0 mm 0.0 W/m2 CLR
01:09 40.0 °F /  4.4 °C 32.7 °F /  0.4 °C 30.21 in /  1022.9 hPa NW 23.0 mph /  37 km/h 23.0 mph /  37 km/h 75 % 0.00 in /  0 mm 0.0 W/m2 CLR
01:14 40.0 °F /  4.4 °C 33.0 °F /  0.6 °C 30.21 in /  1022.9 hPa North 20.7 mph /  33.3 km/h 20.7 mph /  33.3 km/h 76 % 0.00 in /  0 mm 0.0 W/m2 CLR
01:19 40.0 °F /  4.4 °C 33.0 °F /  0.6 °C 30.21 in /  1022.9 hPa North 20.7 mph /  33.3 km/h 20.7 mph /  33.3 km/h 76 % 0.00 in /  0 mm 0.0 W/m2 CLR
01:24 40.0 °F /  4.4 °C 33.0 °F /  0.6 °C 30.21 in /  1022.9 hPa NW 18.4 mph /  29.6 km/h 18.4 mph /  29.6 km/h 76 % 0.00 in /  0 mm 0.0 W/m2 CLR
01:29 40.0 °F /  4.4 °C 32.7 °F /  0.4 °C 30.22 in /  1023.2 hPa NNW 28.8 mph /  46.3 km/h 28.8 mph /  46.3 km/h 75 % 0.00 in /  0 mm 0.0 W/m2 CLR
01:34 40.0 °F /  4.4 °C 32.7 °F /  0.4 °C 30.22 in /  1023.2 hPa NNW 24.2 mph /  38.9 km/h 24.2 mph /  38.9 km/h 75 % 0.00 in /  0 mm 0.0 W/m2 CLR
01:39 40.0 °F /  4.4 °C 32.7 °F /  0.4 °C 30.21 in /  1022.9 hPa NNW 23.0 mph /  37 km/h 23.0 mph /  37 km/h 75 % 0.00 in /  0 mm 0.0 W/m2 CLR
01:44 40.0 °F /  4.4 °C 32.7 °F /  0.4 °C 30.21 in /  1022.9 hPa North 26.0 mph /  41.8 km/h 26.0 mph /  41.8 km/h 75 % 0.00 in /  0 mm 0.0 W/m2 CLR
01:49 39.0 °F /  3.9 °C 31.7 °F /  -0.2 °C 30.21 in /  1022.9 hPa NW 28.8 mph /  46.3 km/h 28.8 mph /  46.3 km/h 75 % 0.00 in /  0 mm 0.0 W/m2 CLR
01:54 39.0 °F /  3.9 °C 31.7 °F /  -0.2 °C 30.21 in /  1022.9 hPa NW 27.6 mph /  44.4 km/h 27.6 mph /  44.4 km/h 75 % 0.00 in /  0 mm 0.0 W/m2 CLR
01:59 39.0 °F /  3.9 °C 31.7 °F /  -0.2 °C 30.21 in /  1022.9 hPa NNW 22.0 mph /  35.4 km/h 22.0 mph /  35.4 km/h 75 % 0.00 in /  0 mm 0.0 W/m2 CLR
02:04 39.0 °F /  3.9 °C 31.7 °F /  -0.2 °C 30.21 in /  1022.9 hPa NNW 21.9 mph /  35.2 km/h 21.9 mph /  35.2 km/h 75 % 0.00 in /  0 mm 0.0 W/m2 CLR
02:09 39.0 °F /  3.9 °C 31.4 °F /  -0.3 °C 30.21 in /  1022.9 hPa NW 21.0 mph /  33.8 km/h 21.0 mph /  33.8 km/h 74 % 0.00 in /  0 mm 0.0 W/m2 CLR
02:14 39.0 °F /  3.9 °C 31.4 °F /  -0.3 °C 30.21 in /  1022.9 hPa NNW 22.0 mph /  35.4 km/h 22.0 mph /  35.4 km/h 74 % 0.00 in /  0 mm 0.0 W/m2 CLR
02:20 39.0 °F /  3.9 °C 31.4 °F /  -0.3 °C 30.21 in /  1022.9 hPa NNW 13.8 mph /  22.2 km/h 13.8 mph /  22.2 km/h 74 % 0.00 in /  0 mm 0.0 W/m2 CLR
02:25 39.0 °F /  3.9 °C 31.7 °F /  -0.2 °C 30.21 in /  1022.9 hPa North 24.0 mph /  38.6 km/h 24.0 mph /  38.6 km/h 75 % 0.00 in /  0 mm 0.0 W/m2 CLR
02:30 39.0 °F /  3.9 °C 31.7 °F /  -0.2 °C 30.21 in /  1022.9 hPa NW 17.3 mph /  27.8 km/h 17.3 mph /  27.8 km/h 75 % 0.00 in /  0 mm 0.0 W/m2 CLR
02:35 39.0 °F /  3.9 °C 31.7 °F /  -0.2 °C 30.21 in /  1022.9 hPa NNW 19.6 mph /  31.5 km/h 21.5 mph /  34.6 km/h 75 % 0.00 in /  0 mm 0.0 W/m2 CLR
02:40 39.0 °F /  3.9 °C 31.7 °F /  -0.2 °C 30.21 in /  1022.9 hPa NNW 19.6 mph /  31.5 km/h 19.6 mph /  31.5 km/h 75 % 0.00 in /  0 mm 0.0 W/m2 CLR
02:45 38.0 °F /  3.3 °C 30.8 °F /  -0.7 °C 30.21 in /  1022.9 hPa WNW 19.6 mph /  31.5 km/h 19.6 mph /  31.5 km/h 75 % 0.00 in /  0 mm 0.0 W/m2 CLR
02:50 38.0 °F /  3.3 °C 30.4 °F /  -0.9 °C 30.21 in /  1022.9 hPa NW 22.0 mph /  35.4 km/h 22.0 mph /  35.4 km/h 74 % 0.00 in /  0 mm 0.0 W/m2 CLR
02:55 39.0 °F /  3.9 °C 31.4 °F /  -0.3 °C 30.21 in /  1022.9 hPa NNW 18.4 mph /  29.6 km/h 18.4 mph /  29.6 km/h 74 % 0.00 in /  0 mm 0.0 W/m2 CLR
03:00 39.0 °F /  3.9 °C 31.4 °F /  -0.3 °C 30.21 in /  1022.9 hPa NW 15.0 mph /  24.1 km/h 15.0 mph /  24.1 km/h 74 % 0.00 in /  0 mm 0.0 W/m2 CLR
03:05 38.0 °F /  3.3 °C 30.4 °F /  -0.9 °C 30.21 in /  1022.9 hPa NW 16.1 mph /  25.9 km/h 16.1 mph /  25.9 km/h 74 % 0.00 in /  0 mm 0.0 W/m2 CLR
03:10 38.0 °F /  3.3 °C 30.4 °F /  -0.9 °C 30.20 in /  1022.6 hPa NNW 25.3 mph /  40.7 km/h 25.3 mph /  40.7 km/h 74 % 0.00 in /  0 mm 0.0 W/m2 CLR
03:15 38.0 °F /  3.3 °C 30.8 °F /  -0.7 °C 30.20 in /  1022.6 hPa North 23.0 mph /  37 km/h 23.0 mph /  37 km/h 75 % 0.00 in /  0 mm 0.0 W/m2 CLR
03:20 38.0 °F /  3.3 °C 30.4 °F /  -0.9 °C 30.20 in /  1022.6 hPa North 24.2 mph /  38.9 km/h 24.2 mph /  38.9 km/h 74 % 0.00 in /  0 mm 0.0 W/m2 CLR
03:25 38.0 °F /  3.3 °C 30.4 °F /  -0.9 °C 30.19 in /  1022.2 hPa NNW 28.8 mph /  46.3 km/h 28.8 mph /  46.3 km/h 74 % 0.00 in /  0 mm 0.0 W/m2 CLR
03:30 38.0 °F /  3.3 °C 30.4 °F /  -0.9 °C 30.19 in /  1022.2 hPa NNW 26.5 mph /  42.6 km/h 26.5 mph /  42.6 km/h 74 % 0.00 in /  0 mm 0.0 W/m2 CLR
03:35 38.0 °F /  3.3 °C 30.4 °F /  -0.9 °C 30.19 in /  1022.2 hPa NNW 28.8 mph /  46.3 km/h 28.8 mph /  46.3 km/h 74 % 0.00 in /  0 mm 0.0 W/m2 CLR
03:40 38.0 °F /  3.3 °C 30.4 °F /  -0.9 °C 30.19 in /  1022.2 hPa NNW 17.3 mph /  27.8 km/h 18.4 mph /  29.6 km/h 74 % 0.00 in /  0 mm 0.0 W/m2 CLR
03:45 38.0 °F /  3.3 °C 30.4 °F /  -0.9 °C 30.19 in /  1022.2 hPa North 23.0 mph /  37 km/h 23.0 mph /  37 km/h 74 % 0.00 in /  0 mm 0.0 W/m2 CLR
03:50 38.0 °F /  3.3 °C 30.4 °F /  -0.9 °C 30.18 in /  1021.9 hPa North 21.9 mph /  35.2 km/h 21.9 mph /  35.2 km/h 74 % 0.00 in /  0 mm 0.0 W/m2 CLR
03:55 38.0 °F /  3.3 °C 30.4 °F /  -0.9 °C 30.18 in /  1021.9 hPa North 20.0 mph /  32.2 km/h 20.0 mph /  32.2 km/h 74 % 0.00 in /  0 mm 0.0 W/m2 CLR
04:00 38.0 °F /  3.3 °C 30.8 °F /  -0.7 °C 30.18 in /  1021.9 hPa North 19.6 mph /  31.5 km/h 19.6 mph /  31.5 km/h 75 % 0.00 in /  0 mm 0.0 W/m2 CLR
04:05 38.0 °F /  3.3 °C 30.8 °F /  -0.7 °C 30.19 in /  1022.2 hPa NNW 19.6 mph /  31.5 km/h 19.6 mph /  31.5 km/h 75 % 0.00 in /  0 mm 0.0 W/m2 CLR
04:10 38.0 °F /  3.3 °C 30.8 °F /  -0.7 °C 30.19 in /  1022.2 hPa NW 22.0 mph /  35.4 km/h 22.0 mph /  35.4 km/h 75 % 0.00 in /  0 mm 0.0 W/m2 CLR
04:15 38.0 °F /  3.3 °C 30.8 °F /  -0.7 °C 30.19 in /  1022.2 hPa NW 15.0 mph /  24.1 km/h 15.0 mph /  24.1 km/h 75 % 0.00 in /  0 mm 0.0 W/m2 CLR
04:20 38.0 °F /  3.3 °C 30.8 °F /  -0.7 °C 30.19 in /  1022.2 hPa NNW 26.5 mph /  42.6 km/h 26.5 mph /  42.6 km/h 75 % 0.00 in /  0 mm 0.0 W/m2 CLR
04:25 38.0 °F /  3.3 °C 30.8 °F /  -0.7 °C 30.19 in /  1022.2 hPa NNW 19.6 mph /  31.5 km/h 19.6 mph /  31.5 km/h 75 % 0.00 in /  0 mm 0.0 W/m2 CLR
04:30 38.0 °F /  3.3 °C 30.8 °F /  -0.7 °C 30.19 in /  1022.2 hPa NNW 25.3 mph /  40.7 km/h 25.3 mph /  40.7 km/h 75 % 0.00 in /  0 mm 0.0 W/m2 CLR
04:35 38.0 °F /  3.3 °C 30.8 °F /  -0.7 °C 30.19 in /  1022.2 hPa North 19.6 mph /  31.5 km/h 19.6 mph /  31.5 km/h 75 % 0.00 in /  0 mm 0.0 W/m2 CLR
04:40 38.0 °F /  3.3 °C 30.8 °F /  -0.7 °C 30.19 in /  1022.2 hPa NW 17.3 mph /  27.8 km/h 17.3 mph /  27.8 km/h 75 % 0.00 in /  0 mm 0.0 W/m2 CLR
04:45 38.0 °F /  3.3 °C 30.8 °F /  -0.7 °C 30.19 in /  1022.2 hPa NNW 21.9 mph /  35.2 km/h 21.9 mph /  35.2 km/h 75 % 0.00 in /  0 mm 0.0 W/m2 CLR
04:50 38.0 °F /  3.3 °C 30.8 °F /  -0.7 °C 30.19 in /  1022.2 hPa North 20.7 mph /  33.3 km/h 20.7 mph /  33.3 km/h 75 % 0.00 in /  0 mm 0.0 W/m2 CLR
04:55 38.0 °F /  3.3 °C 30.8 °F /  -0.7 °C 30.19 in /  1022.2 hPa North 27.0 mph /  43.5 km/h 27.0 mph /  43.5 km/h 75 % 0.00 in /  0 mm 0.0 W/m2 CLR
05:00 38.0 °F /  3.3 °C 30.8 °F /  -0.7 °C 30.19 in /  1022.2 hPa NNW 26.5 mph /  42.6 km/h 26.5 mph /  42.6 km/h 75 % 0.00 in /  0 mm 0.0 W/m2 CLR
05:05 38.0 °F /  3.3 °C 31.1 °F /  -0.5 °C 30.19 in /  1022.2 hPa NNW 21.9 mph /  35.2 km/h 21.9 mph /  35.2 km/h 76 % 0.00 in /  0 mm 0.0 W/m2 CLR
05:10 38.0 °F /  3.3 °C 31.1 °F /  -0.5 °C 30.19 in /  1022.2 hPa North 25.3 mph /  40.7 km/h 25.3 mph /  40.7 km/h 76 % 0.00 in /  0 mm 0.0 W/m2 CLR
05:15 38.0 °F /  3.3 °C 31.1 °F /  -0.5 °C 30.19 in /  1022.2 hPa NW 20.7 mph /  33.3 km/h 20.7 mph /  33.3 km/h 76 % 0.00 in /  0 mm 0.0 W/m2 CLR
05:20 38.0 °F /  3.3 °C 31.1 °F /  -0.5 °C 30.20 in /  1022.6 hPa NNW 19.6 mph /  31.5 km/h 19.6 mph /  31.5 km/h 76 % 0.00 in /  0 mm 0.0 W/m2 CLR
05:25 38.0 °F /  3.3 °C 31.1 °F /  -0.5 °C 30.20 in /  1022.6 hPa North 21.9 mph /  35.2 km/h 21.9 mph /  35.2 km/h 76 % 0.00 in /  0 mm 0.0 W/m2 CLR
05:30 38.0 °F /  3.3 °C 31.1 °F /  -0.5 °C 30.20 in /  1022.6 hPa North 17.3 mph /  27.8 km/h 17.3 mph /  27.8 km/h 76 % 0.00 in /  0 mm 0.0 W/m2 CLR
05:35 38.0 °F /  3.3 °C 31.1 °F /  -0.5 °C 30.20 in /  1022.6 hPa North 25.3 mph /  40.7 km/h 25.3 mph /  40.7 km/h 76 % 0.00 in /  0 mm 0.0 W/m2 CLR
05:40 38.0 °F /  3.3 °C 31.1 °F /  -0.5 °C 30.20 in /  1022.6 hPa NNW 19.6 mph /  31.5 km/h 19.6 mph /  31.5 km/h 76 % 0.00 in /  0 mm 0.0 W/m2 CLR
05:45 38.0 °F /  3.3 °C 31.1 °F /  -0.5 °C 30.20 in /  1022.6 hPa NNW 25.3 mph /  40.7 km/h 25.3 mph /  40.7 km/h 76 % 0.00 in /  0 mm 0.0 W/m2 CLR
05:50 37.0 °F /  2.8 °C 30.1 °F /  -1.1 °C 30.20 in /  1022.6 hPa North 19.0 mph /  30.6 km/h 19.0 mph /  30.6 km/h 76 % 0.00 in /  0 mm 0.0 W/m2 CLR
05:55 37.0 °F /  2.8 °C 30.1 °F /  -1.1 °C 30.19 in /  1022.2 hPa NNW 26.5 mph /  42.6 km/h 26.5 mph /  42.6 km/h 76 % 0.00 in /  0 mm 0.0 W/m2 CLR
06:00 37.0 °F /  2.8 °C 30.1 °F /  -1.1 °C 30.20 in /  1022.6 hPa NNW 26.5 mph /  42.6 km/h 26.5 mph /  42.6 km/h 76 % 0.00 in /  0 mm 0.0 W/m2 CLR
06:05 37.0 °F /  2.8 °C 30.5 °F /  -0.8 °C 30.19 in /  1022.2 hPa North 18.4 mph /  29.6 km/h 18.4 mph /  29.6 km/h 77 % 0.00 in /  0 mm 0.0 W/m2 CLR
06:10 37.0 °F /  2.8 °C 30.5 °F /  -0.8 °C 30.20 in /  1022.6 hPa NNW 15.0 mph /  24.1 km/h 15.0 mph /  24.1 km/h 77 % 0.00 in /  0 mm 0.0 W/m2 CLR
06:15 37.0 °F /  2.8 °C 30.5 °F /  -0.8 °C 30.19 in /  1022.2 hPa NNW 16.1 mph /  25.9 km/h 16.1 mph /  25.9 km/h 77 % 0.00 in /  0 mm 0.0 W/m2 CLR
06:20 37.0 °F /  2.8 °C 30.5 °F /  -0.8 °C 30.19 in /  1022.2 hPa North 17.3 mph /  27.8 km/h 17.3 mph /  27.8 km/h 77 % 0.00 in /  0 mm 0.0 W/m2 CLR
06:25 37.0 °F /  2.8 °C 30.1 °F /  -1.1 °C 30.19 in /  1022.2 hPa NNW 19.6 mph /  31.5 km/h 19.6 mph /  31.5 km/h 76 % 0.00 in /  0 mm 0.0 W/m2 CLR
06:30 37.0 °F /  2.8 °C 29.8 °F /  -1.2 °C 30.19 in /  1022.2 hPa NW 17.3 mph /  27.8 km/h 17.3 mph /  27.8 km/h 75 % 0.00 in /  0 mm 0.0 W/m2 CLR
06:35 37.0 °F /  2.8 °C 30.1 °F /  -1.1 °C 30.19 in /  1022.2 hPa NNW 12.7 mph /  20.4 km/h 12.7 mph /  20.4 km/h 76 % 0.00 in /  0 mm 0.0 W/m2 CLR
06:40 37.0 °F /  2.8 °C 30.1 °F /  -1.1 °C 30.19 in /  1022.2 hPa NNW 21.0 mph /  33.8 km/h 21.0 mph /  33.8 km/h 76 % 0.00 in /  0 mm 0.0 W/m2 CLR
06:45 37.0 °F /  2.8 °C 29.8 °F /  -1.2 °C 30.19 in /  1022.2 hPa NW 23.0 mph /  37 km/h 23.0 mph /  37 km/h 75 % 0.00 in /  0 mm 0.0 W/m2 CLR
06:50 37.0 °F /  2.8 °C 29.8 °F /  -1.2 °C 30.19 in /  1022.2 hPa NNW 14.0 mph /  22.5 km/h 14.0 mph /  22.5 km/h 75 % 0.00 in /  0 mm 0.0 W/m2 CLR
06:55 37.0 °F /  2.8 °C 30.1 °F /  -1.1 °C 30.19 in /  1022.2 hPa North 18.4 mph /  29.6 km/h 18.4 mph /  29.6 km/h 76 % 0.00 in /  0 mm 0.0 W/m2 CLR
07:00 37.0 °F /  2.8 °C 30.1 °F /  -1.1 °C 30.19 in /  1022.2 hPa North 19.6 mph /  31.5 km/h 19.6 mph /  31.5 km/h 76 % 0.00 in /  0 mm 0.0 W/m2 CLR
07:05 37.0 °F /  2.8 °C 30.5 °F /  -0.8 °C 30.18 in /  1021.9 hPa North 17.3 mph /  27.8 km/h 17.3 mph /  27.8 km/h 77 % 0.00 in /  0 mm 0.0 W/m2 CLR
07:10 37.0 °F /  2.8 °C 30.5 °F /  -0.8 °C 30.18 in /  1021.9 hPa NNW 23.0 mph /  37 km/h 23.0 mph /  37 km/h 77 % 0.00 in /  0 mm 0.0 W/m2 CLR
07:15 37.0 °F /  2.8 °C 30.5 °F /  -0.8 °C 30.18 in /  1021.9 hPa NW 18.4 mph /  29.6 km/h 18.4 mph /  29.6 km/h 77 % 0.00 in /  0 mm 0.0 W/m2 CLR
07:20 37.0 °F /  2.8 °C 30.5 °F /  -0.8 °C 30.19 in /  1022.2 hPa NNW 23.0 mph /  37 km/h 23.0 mph /  37 km/h 77 % 0.00 in /  0 mm 0.0 W/m2 CLR
07:25 37.0 °F /  2.8 °C 30.5 °F /  -0.8 °C 30.19 in /  1022.2 hPa NNW 15.0 mph /  24.1 km/h 15.0 mph /  24.1 km/h 77 % 0.00 in /  0 mm 0.0 W/m2 CLR
07:30 37.0 °F /  2.8 °C 30.5 °F /  -0.8 °C 30.19 in /  1022.2 hPa NNW 20.7 mph /  33.3 km/h 20.7 mph /  33.3 km/h 77 % 0.00 in /  0 mm 0.0 W/m2 CLR
07:35 37.0 °F /  2.8 °C 30.5 °F /  -0.8 °C 30.20 in /  1022.6 hPa North 21.9 mph /  35.2 km/h 21.9 mph /  35.2 km/h 77 % 0.00 in /  0 mm 0.0 W/m2 CLR
07:40 37.0 °F /  2.8 °C 30.5 °F /  -0.8 °C 30.20 in /  1022.6 hPa NNW 24.2 mph /  38.9 km/h 24.2 mph /  38.9 km/h 77 % 0.00 in /  0 mm 0.0 W/m2 CLR
07:45 37.0 °F /  2.8 °C 30.5 °F /  -0.8 °C 30.20 in /  1022.6 hPa North 19.6 mph /  31.5 km/h 19.6 mph /  31.5 km/h 77 % 0.00 in /  0 mm 0.0 W/m2 CLR
07:50 37.0 °F /  2.8 °C 30.5 °F /  -0.8 °C 30.20 in /  1022.6 hPa North 19.6 mph /  31.5 km/h 19.6 mph /  31.5 km/h 77 % 0.00 in /  0 mm 0.0 W/m2 CLR
07:55 37.0 °F /  2.8 °C 30.8 °F /  -0.7 °C 30.20 in /  1022.6 hPa North 16.1 mph /  25.9 km/h 16.1 mph /  25.9 km/h 78 % 0.00 in /  0 mm 0.0 W/m2 CLR
08:00 37.0 °F /  2.8 °C 30.8 °F /  -0.7 °C 30.20 in /  1022.6 hPa NNW 20.0 mph /  32.2 km/h 20.0 mph /  32.2 km/h 78 % 0.00 in /  0 mm 5.0 W/m2 OVC
08:05 37.0 °F /  2.8 °C 30.8 °F /  -0.7 °C 30.20 in /  1022.6 hPa North 15.0 mph /  24.1 km/h 15.0 mph /  24.1 km/h 78 % 0.00 in /  0 mm 7.0 W/m2 BKN
08:10 37.0 °F /  2.8 °C 30.8 °F /  -0.7 °C 30.21 in /  1022.9 hPa North 15.0 mph /  24.1 km/h 15.0 mph /  24.1 km/h 78 % 0.00 in /  0 mm 9.0 W/m2 BKN
08:15 37.0 °F /  2.8 °C 30.8 °F /  -0.7 °C 30.21 in /  1022.9 hPa NNW 19.6 mph /  31.5 km/h 19.6 mph /  31.5 km/h 78 % 0.00 in /  0 mm 12.0 W/m2 BKN
08:20 37.0 °F /  2.8 °C 30.8 °F /  -0.7 °C 30.21 in /  1022.9 hPa North 16.1 mph /  25.9 km/h 16.1 mph /  25.9 km/h 78 % 0.00 in /  0 mm 16.0 W/m2 BKN
08:25 37.0 °F /  2.8 °C 30.8 °F /  -0.7 °C 30.21 in /  1022.9 hPa North 16.1 mph /  25.9 km/h 16.1 mph /  25.9 km/h 78 % 0.00 in /  0 mm 18.0 W/m2 BKN
08:30 37.0 °F /  2.8 °C 30.8 °F /  -0.7 °C 30.21 in /  1022.9 hPa NNW 23.0 mph /  37 km/h 23.0 mph /  37 km/h 78 % 0.00 in /  0 mm 23.0 W/m2 BKN
08:35 37.0 °F /  2.8 °C 30.8 °F /  -0.7 °C 30.21 in /  1022.9 hPa North 18.4 mph /  29.6 km/h 18.4 mph /  29.6 km/h 78 % 0.00 in /  0 mm 30.0 W/m2 BKN
08:40 37.0 °F /  2.8 °C 30.8 °F /  -0.7 °C 30.22 in /  1023.2 hPa NNW 26.5 mph /  42.6 km/h 26.5 mph /  42.6 km/h 78 % 0.00 in /  0 mm 37.0 W/m2 BKN
08:46 37.0 °F /  2.8 °C 30.5 °F /  -0.8 °C 30.22 in /  1023.2 hPa North 23.0 mph /  37 km/h 23.0 mph /  37 km/h 77 % 0.00 in /  0 mm 46.0 W/m2 BKN
08:51 38.0 °F /  3.3 °C 31.4 °F /  -0.3 °C 30.22 in /  1023.2 hPa North 19.6 mph /  31.5 km/h 19.6 mph /  31.5 km/h 77 % 0.00 in /  0 mm 60.0 W/m2 SCT
08:56 38.0 °F /  3.3 °C 31.4 °F /  -0.3 °C 30.22 in /  1023.2 hPa NNW 18.4 mph /  29.6 km/h 18.4 mph /  29.6 km/h 77 % 0.00 in /  0 mm 77.0 W/m2 FEW
09:01 38.0 °F /  3.3 °C 31.4 °F /  -0.3 °C 30.21 in /  1022.9 hPa NNW 21.9 mph /  35.2 km/h 21.9 mph /  35.2 km/h 77 % 0.00 in /  0 mm 95.0 W/m2 CLR
09:06 38.0 °F /  3.3 °C 31.4 °F /  -0.3 °C 30.21 in /  1022.9 hPa NNW 20.7 mph /  33.3 km/h 20.7 mph /  33.3 km/h 77 % 0.00 in /  0 mm 113.0 W/m2 CLR
09:11 38.0 °F /  3.3 °C 31.4 °F /  -0.3 °C 30.21 in /  1022.9 hPa North 23.0 mph /  37 km/h 23.0 mph /  37 km/h 77 % 0.00 in /  0 mm 130.0 W/m2 CLR
09:16 38.0 °F /  3.3 °C 31.1 °F /  -0.5 °C 30.21 in /  1022.9 hPa North 20.7 mph /  33.3 km/h 20.7 mph /  33.3 km/h 76 % 0.00 in /  0 mm 134.0 W/m2 CLR
09:21 39.0 °F /  3.9 °C 32.1 °F /  0.1 °C 30.22 in /  1023.2 hPa NNW 19.0 mph /  30.6 km/h 19.0 mph /  30.6 km/h 76 % 0.00 in /  0 mm 162.0 W/m2 CLR
09:26 39.0 °F /  3.9 °C 32.1 °F /  0.1 °C 30.22 in /  1023.2 hPa North 17.0 mph /  27.4 km/h 17.0 mph /  27.4 km/h 76 % 0.00 in /  0 mm 183.0 W/m2 CLR
09:31 39.0 °F /  3.9 °C 32.1 °F /  0.1 °C 30.21 in /  1022.9 hPa North 21.0 mph /  33.8 km/h 21.0 mph /  33.8 km/h 76 % 0.00 in /  0 mm 137.0 W/m2 CLR
09:36 39.0 °F /  3.9 °C 32.1 °F /  0.1 °C 30.21 in /  1022.9 hPa NNW 21.9 mph /  35.2 km/h 21.9 mph /  35.2 km/h 76 % 0.00 in /  0 mm 218.0 W/m2 CLR
09:41 39.0 °F /  3.9 °C 31.7 °F /  -0.2 °C 30.21 in /  1022.9 hPa North 26.5 mph /  42.6 km/h 26.5 mph /  42.6 km/h 75 % 0.00 in /  0 mm 234.0 W/m2 CLR
09:46 40.0 °F /  4.4 °C 33.0 °F /  0.6 °C 30.21 in /  1022.9 hPa North 19.0 mph /  30.6 km/h 19.0 mph /  30.6 km/h 76 % 0.00 in /  0 mm 250.0 W/m2 CLR
09:51 40.0 °F /  4.4 °C 32.7 °F /  0.4 °C 30.21 in /  1022.9 hPa NNW 21.9 mph /  35.2 km/h 21.9 mph /  35.2 km/h 75 % 0.00 in /  0 mm 267.0 W/m2 CLR
09:56 40.0 °F /  4.4 °C 32.4 °F /  0.2 °C 30.21 in /  1022.9 hPa NNW 23.0 mph /  37 km/h 23.0 mph /  37 km/h 74 % 0.00 in /  0 mm 281.0 W/m2 CLR
10:01 40.0 °F /  4.4 °C 32.4 °F /  0.2 °C 30.22 in /  1023.2 hPa North 23.0 mph /  37 km/h 23.0 mph /  37 km/h 74 % 0.00 in /  0 mm 294.0 W/m2 CLR
10:06 41.0 °F /  5 °C 33.0 °F /  0.6 °C 30.22 in /  1023.2 hPa NNW 24.2 mph /  38.9 km/h 24.2 mph /  38.9 km/h 73 % 0.00 in /  0 mm 308.0 W/m2 CLR
10:11 41.0 °F /  5 °C 32.7 °F /  0.4 °C 30.21 in /  1022.9 hPa North 26.5 mph /  42.6 km/h 26.5 mph /  42.6 km/h 72 % 0.00 in /  0 mm 323.0 W/m2 CLR
10:16 41.0 °F /  5 °C 32.7 °F /  0.4 °C 30.21 in /  1022.9 hPa North 31.1 mph /  50 km/h 31.1 mph /  50 km/h 72 % 0.00 in /  0 mm 336.0 W/m2 CLR
10:21 41.0 °F /  5 °C 32.7 °F /  0.4 °C 30.21 in /  1022.9 hPa North 23.0 mph /  37 km/h 23.0 mph /  37 km/h 72 % 0.00 in /  0 mm 350.0 W/m2 CLR
10:26 42.0 °F /  5.6 °C 33.3 °F /  0.7 °C 30.21 in /  1022.9 hPa NNW 30.0 mph /  48.3 km/h 30.0 mph /  48.3 km/h 71 % 0.00 in /  0 mm 362.0 W/m2 CLR
10:31 42.0 °F /  5.6 °C 33.6 °F /  0.9 °C 30.21 in /  1022.9 hPa NNE 19.6 mph /  31.5 km/h 19.6 mph /  31.5 km/h 72 % 0.00 in /  0 mm 381.0 W/m2 CLR
10:36 42.0 °F /  5.6 °C 33.3 °F /  0.7 °C 30.21 in /  1022.9 hPa North 26.5 mph /  42.6 km/h 26.5 mph /  42.6 km/h 71 % 0.00 in /  0 mm 401.0 W/m2 CLR
10:41 42.0 °F /  5.6 °C 33.3 °F /  0.7 °C 30.20 in /  1022.6 hPa NNW 23.0 mph /  37 km/h 23.0 mph /  37 km/h 71 % 0.00 in /  0 mm 406.0 W/m2 CLR
10:46 42.0 °F /  5.6 °C 32.9 °F /  0.5 °C 30.21 in /  1022.9 hPa NNE 24.2 mph /  38.9 km/h 24.2 mph /  38.9 km/h 70 % 0.00 in /  0 mm 424.0 W/m2 CLR
10:51 43.0 °F /  6.1 °C 33.9 °F /  1.1 °C 30.21 in /  1022.9 hPa North 27.6 mph /  44.4 km/h 27.6 mph /  44.4 km/h 70 % 0.00 in /  0 mm 429.0 W/m2 CLR
10:56 43.0 °F /  6.1 °C 33.5 °F /  0.8 °C 30.21 in /  1022.9 hPa North 32.2 mph /  51.8 km/h 32.2 mph /  51.8 km/h 69 % 0.00 in /  0 mm 436.0 W/m2 CLR
11:01 43.0 °F /  6.1 °C 33.5 °F /  0.8 °C 30.21 in /  1022.9 hPa North 28.8 mph /  46.3 km/h 28.8 mph /  46.3 km/h 69 % 0.00 in /  0 mm 446.0 W/m2 CLR
11:06 43.0 °F /  6.1 °C 33.9 °F /  1.1 °C 30.21 in /  1022.9 hPa NNE 17.3 mph /  27.8 km/h 17.3 mph /  27.8 km/h 70 % 0.00 in /  0 mm 459.0 W/m2 CLR
11:11 44.0 °F /  6.7 °C 33.7 °F /  0.9 °C 30.22 in /  1023.2 hPa NNE 27.6 mph /  44.4 km/h 27.6 mph /  44.4 km/h 67 % 0.00 in /  0 mm 478.0 W/m2 CLR
11:16 44.0 °F /  6.7 °C 34.5 °F /  1.4 °C 30.22 in /  1023.2 hPa NE 26.5 mph /  42.6 km/h 26.5 mph /  42.6 km/h 69 % 0.00 in /  0 mm 512.0 W/m2 CLR
11:21 44.0 °F /  6.7 °C 33.7 °F /  0.9 °C 30.23 in /  1023.6 hPa NNE 23.0 mph /  37 km/h 23.0 mph /  37 km/h 67 % 0.00 in /  0 mm 98.0 W/m2 CLR
11:26 44.0 °F /  6.7 °C 34.5 °F /  1.4 °C 30.23 in /  1023.6 hPa NNE 18.4 mph /  29.6 km/h 18.4 mph /  29.6 km/h 69 % 0.00 in /  0 mm 568.0 W/m2 CLR
11:31 44.0 °F /  6.7 °C 34.1 °F /  1.2 °C 30.22 in /  1023.2 hPa North 17.0 mph /  27.4 km/h 17.0 mph /  27.4 km/h 68 % 0.00 in /  0 mm 519.0 W/m2 CLR
11:36 44.0 °F /  6.7 °C 33.0 °F /  0.6 °C 30.23 in /  1023.6 hPa NNE 26.5 mph /  42.6 km/h 26.5 mph /  42.6 km/h 65 % 0.00 in /  0 mm 524.0 W/m2 CLR
11:41 44.0 °F /  6.7 °C 33.4 °F /  0.8 °C 30.23 in /  1023.6 hPa North 26.5 mph /  42.6 km/h 26.5 mph /  42.6 km/h 66 % 0.00 in /  0 mm 564.0 W/m2 CLR
11:46 45.0 °F /  7.2 °C 33.9 °F /  1.1 °C 30.22 in /  1023.2 hPa NNW 26.5 mph /  42.6 km/h 26.5 mph /  42.6 km/h 65 % 0.00 in /  0 mm 545.0 W/m2 CLR
11:51 46.0 °F /  7.8 °C 35.3 °F /  1.8 °C 30.22 in /  1023.2 hPa NNE 26.5 mph /  42.6 km/h 26.5 mph /  42.6 km/h 66 % 0.00 in /  0 mm 526.0 W/m2 CLR
11:56 45.0 °F /  7.2 °C 34.3 °F /  1.3 °C 30.22 in /  1023.2 hPa North 26.5 mph /  42.6 km/h 26.5 mph /  42.6 km/h 66 % 0.00 in /  0 mm 573.0 W/m2 CLR
12:01 46.0 °F /  7.8 °C 35.7 °F /  2.1 °C 30.22 in /  1023.2 hPa NNW 26.5 mph /  42.6 km/h 26.5 mph /  42.6 km/h 67 % 0.00 in /  0 mm 596.0 W/m2 CLR
12:06 46.0 °F /  7.8 °C 34.9 °F /  1.6 °C 30.22 in /  1023.2 hPa North 26.5 mph /  42.6 km/h 26.5 mph /  42.6 km/h 65 % 0.00 in /  0 mm 538.0 W/m2 CLR
12:11 46.0 °F /  7.8 °C 34.9 °F /  1.6 °C 30.21 in /  1022.9 hPa NNW 29.9 mph /  48.1 km/h 29.9 mph /  48.1 km/h 65 % 0.00 in /  0 mm 621.0 W/m2 CLR
12:16 47.0 °F /  8.3 °C 35.4 °F /  1.9 °C 30.21 in /  1022.9 hPa NNE 16.1 mph /  25.9 km/h 16.1 mph /  25.9 km/h 64 % 0.00 in /  0 mm 682.0 W/m2 CLR
12:21 46.0 °F /  7.8 °C 32.9 °F /  0.5 °C 30.22 in /  1023.2 hPa NNE 21.9 mph /  35.2 km/h 21.9 mph /  35.2 km/h 60 % 0.00 in /  0 mm 151.0 W/m2 CLR
12:26 45.0 °F /  7.2 °C 31.5 °F /  -0.3 °C 30.21 in /  1022.9 hPa NNE 23.0 mph /  37 km/h 23.0 mph /  37 km/h 59 % 0.00 in /  0 mm 594.0 W/m2 CLR
12:31 47.0 °F /  8.3 °C 33.0 °F /  0.6 °C 30.21 in /  1022.9 hPa NNE 21.0 mph /  33.8 km/h 21.0 mph /  33.8 km/h 58 % 0.00 in /  0 mm 615.0 W/m2 CLR
12:36 47.0 °F /  8.3 °C 34.2 °F /  1.2 °C 30.21 in /  1022.9 hPa North 16.1 mph /  25.9 km/h 16.1 mph /  25.9 km/h 61 % 0.00 in /  0 mm 645.0 W/m2 CLR
12:41 46.0 °F /  7.8 °C 32.5 °F /  0.3 °C 30.20 in /  1022.6 hPa NNE 16.1 mph /  25.9 km/h 16.1 mph /  25.9 km/h 59 % 0.00 in /  0 mm 675.0 W/m2 CLR
12:46 47.0 °F /  8.3 °C 31.2 °F /  -0.4 °C 30.20 in /  1022.6 hPa North 26.5 mph /  42.6 km/h 26.5 mph /  42.6 km/h 54 % 0.00 in /  0 mm 659.0 W/m2 CLR
12:51 48.0 °F /  8.9 °C 32.1 °F /  0.1 °C 30.20 in /  1022.6 hPa NNW 30.0 mph /  48.3 km/h 30.0 mph /  48.3 km/h 54 % 0.00 in /  0 mm 684.0 W/m2 CLR
12:56 49.0 °F /  9.4 °C 34.0 °F /  1.1 °C 30.20 in /  1022.6 hPa NNW 19.6 mph /  31.5 km/h 19.6 mph /  31.5 km/h 56 % 0.00 in /  0 mm 744.0 W/m2 CLR
13:01 47.0 °F /  8.3 °C 33.8 °F /  1 °C 30.20 in /  1022.6 hPa NNW 26.0 mph /  41.8 km/h 26.0 mph /  41.8 km/h 60 % 0.00 in /  0 mm 134.0 W/m2 CLR
13:06 46.0 °F /  7.8 °C 32.9 °F /  0.5 °C 30.20 in /  1022.6 hPa North 23.0 mph /  37 km/h 23.0 mph /  37 km/h 60 % 0.00 in /  0 mm 297.0 W/m2 CLR
13:11 48.0 °F /  8.9 °C 36.0 °F /  2.2 °C 30.20 in /  1022.6 hPa North 19.6 mph /  31.5 km/h 19.6 mph /  31.5 km/h 63 % 0.00 in /  0 mm 812.0 W/m2 CLR
13:16 48.0 °F /  8.9 °C 34.8 °F /  1.6 °C 30.20 in /  1022.6 hPa North 25.3 mph /  40.7 km/h 25.3 mph /  40.7 km/h 60 % 0.00 in /  0 mm 290.0 W/m2 CLR
13:21 47.0 °F /  8.3 °C 34.6 °F /  1.4 °C 30.19 in /  1022.2 hPa North 16.0 mph /  25.7 km/h 16.0 mph /  25.7 km/h 62 % 0.00 in /  0 mm 816.0 W/m2 CLR
13:26 48.0 °F /  8.9 °C 35.2 °F /  1.8 °C 30.20 in /  1022.6 hPa NNW 19.0 mph /  30.6 km/h 19.0 mph /  30.6 km/h 61 % 0.00 in /  0 mm 241.0 W/m2 CLR
13:31 47.0 °F /  8.3 °C 33.4 °F /  0.8 °C 30.19 in /  1022.2 hPa North 19.6 mph /  31.5 km/h 19.6 mph /  31.5 km/h 59 % 0.00 in /  0 mm 202.0 W/m2 CLR
13:36 46.0 °F /  7.8 °C 32.9 °F /  0.5 °C 30.19 in /  1022.2 hPa North 25.3 mph /  40.7 km/h 25.3 mph /  40.7 km/h 60 % 0.00 in /  0 mm 199.0 W/m2 CLR
13:41 46.0 °F /  7.8 °C 33.3 °F /  0.7 °C 30.18 in /  1021.9 hPa NNE 19.6 mph /  31.5 km/h 19.6 mph /  31.5 km/h 61 % 0.00 in /  0 mm 237.0 W/m2 CLR
13:46 47.0 °F /  8.3 °C 34.2 °F /  1.2 °C 30.18 in /  1021.9 hPa North 20.7 mph /  33.3 km/h 20.7 mph /  33.3 km/h 61 % 0.00 in /  0 mm 148.0 W/m2 CLR
13:51 46.0 °F /  7.8 °C 33.3 °F /  0.7 °C 30.18 in /  1021.9 hPa NNE 19.6 mph /  31.5 km/h 19.6 mph /  31.5 km/h 61 % 0.00 in /  0 mm 712.0 W/m2 CLR
13:56 48.0 °F /  8.9 °C 35.2 °F /  1.8 °C 30.18 in /  1021.9 hPa NNE 21.9 mph /  35.2 km/h 21.9 mph /  35.2 km/h 61 % 0.00 in /  0 mm 717.0 W/m2 CLR
14:01 48.0 °F /  8.9 °C 35.2 °F /  1.8 °C 30.18 in /  1021.9 hPa North 19.6 mph /  31.5 km/h 19.6 mph /  31.5 km/h 61 % 0.00 in /  0 mm 137.0 W/m2 CLR
14:06 48.0 °F /  8.9 °C 36.0 °F /  2.2 °C 30.17 in /  1021.6 hPa North 24.2 mph /  38.9 km/h 24.2 mph /  38.9 km/h 63 % 0.00 in /  0 mm 626.0 W/m2 CLR
14:11 48.0 °F /  8.9 °C 35.2 °F /  1.8 °C 30.17 in /  1021.6 hPa North 24.2 mph /  38.9 km/h 24.2 mph /  38.9 km/h 61 % 0.00 in /  0 mm 598.0 W/m2 CLR
14:16 49.0 °F /  9.4 °C 36.9 °F /  2.7 °C 30.16 in /  1021.2 hPa NNW 26.5 mph /  42.6 km/h 26.5 mph /  42.6 km/h 63 % 0.00 in /  0 mm 596.0 W/m2 CLR
14:21 49.0 °F /  9.4 °C 36.5 °F /  2.5 °C 30.16 in /  1021.2 hPa North 21.0 mph /  33.8 km/h 21.0 mph /  33.8 km/h 62 % 0.00 in /  0 mm 577.0 W/m2 CLR
14:26 49.0 °F /  9.4 °C 36.5 °F /  2.5 °C 30.16 in /  1021.2 hPa NNW 21.9 mph /  35.2 km/h 21.9 mph /  35.2 km/h 62 % 0.00 in /  0 mm 570.0 W/m2 CLR
14:31 49.0 °F /  9.4 °C 36.5 °F /  2.5 °C 30.16 in /  1021.2 hPa NNW 24.2 mph /  38.9 km/h 24.2 mph /  38.9 km/h 62 % 0.00 in /  0 mm 594.0 W/m2 CLR
14:36 49.0 °F /  9.4 °C 36.1 °F /  2.3 °C 30.16 in /  1021.2 hPa NNW 25.0 mph /  40.2 km/h 25.0 mph /  40.2 km/h 61 % 0.00 in /  0 mm 564.0 W/m2 CLR
14:42 50.0 °F /  10 °C 37.5 °F /  3.1 °C 30.16 in /  1021.2 hPa NW 26.5 mph /  42.6 km/h 26.5 mph /  42.6 km/h 62 % 0.00 in /  0 mm 554.0 W/m2 CLR
14:47 50.0 °F /  10 °C 37.1 °F /  2.8 °C 30.16 in /  1021.2 hPa North 29.9 mph /  48.1 km/h 29.9 mph /  48.1 km/h 61 % 0.00 in /  0 mm 571.0 W/m2 CLR
14:52 50.0 °F /  10 °C 36.7 °F /  2.6 °C 30.15 in /  1020.9 hPa North 23.0 mph /  37 km/h 23.0 mph /  37 km/h 60 % 0.00 in /  0 mm 132.0 W/m2 CLR
14:57 49.0 °F /  9.4 °C 35.3 °F /  1.8 °C 30.15 in /  1020.9 hPa NNW 23.0 mph /  37 km/h 23.0 mph /  37 km/h 59 % 0.00 in /  0 mm 571.0 W/m2 CLR
15:02 49.0 °F /  9.4 °C 35.3 °F /  1.8 °C 30.15 in /  1020.9 hPa North 16.1 mph /  25.9 km/h 16.1 mph /  25.9 km/h 59 % 0.00 in /  0 mm 555.0 W/m2 CLR
15:07 49.0 °F /  9.4 °C 34.9 °F /  1.6 °C 30.15 in /  1020.9 hPa North 23.0 mph /  37 km/h 23.0 mph /  37 km/h 58 % 0.00 in /  0 mm 559.0 W/m2 CLR
15:12 51.0 °F /  10.6 °C 36.7 °F /  2.6 °C 30.15 in /  1020.9 hPa North 20.7 mph /  33.3 km/h 20.7 mph /  33.3 km/h 58 % 0.00 in /  0 mm 555.0 W/m2 CLR
15:17 51.0 °F /  10.6 °C 36.7 °F /  2.6 °C 30.14 in /  1020.5 hPa North 18.4 mph /  29.6 km/h 18.4 mph /  29.6 km/h 58 % 0.00 in /  0 mm 573.0 W/m2 CLR
15:22 51.0 °F /  10.6 °C 36.3 °F /  2.4 °C 30.14 in /  1020.5 hPa NNW 20.7 mph /  33.3 km/h 20.7 mph /  33.3 km/h 57 % 0.00 in /  0 mm 513.0 W/m2 CLR
15:27 50.0 °F /  10 °C 35.4 °F /  1.9 °C 30.14 in /  1020.5 hPa NNW 27.6 mph /  44.4 km/h 27.6 mph /  44.4 km/h 57 % 0.00 in /  0 mm 494.0 W/m2 CLR
15:32 51.0 °F /  10.6 °C 36.3 °F /  2.4 °C 30.14 in /  1020.5 hPa North 24.2 mph /  38.9 km/h 24.2 mph /  38.9 km/h 57 % 0.00 in /  0 mm 473.0 W/m2 CLR
15:37 50.0 °F /  10 °C 35.4 °F /  1.9 °C 30.14 in /  1020.5 hPa North 19.6 mph /  31.5 km/h 19.6 mph /  31.5 km/h 57 % 0.00 in /  0 mm 56.0 W/m2 CLR
15:42 49.0 °F /  9.4 °C 34.4 °F /  1.3 °C 30.14 in /  1020.5 hPa NNW 26.5 mph /  42.6 km/h 26.5 mph /  42.6 km/h 57 % 0.00 in /  0 mm 432.0 W/m2 FEW
15:47 50.0 °F /  10 °C 35.4 °F /  1.9 °C 30.14 in /  1020.5 hPa NW 15.0 mph /  24.1 km/h 15.0 mph /  24.1 km/h 57 % 0.00 in /  0 mm 420.0 W/m2 FEW
15:52 49.0 °F /  9.4 °C 34.4 °F /  1.3 °C 30.14 in /  1020.5 hPa NNW 20.7 mph /  33.3 km/h 20.7 mph /  33.3 km/h 57 % 0.00 in /  0 mm 408.0 W/m2 CLR
15:57 50.0 °F /  10 °C 34.9 °F /  1.6 °C 30.14 in /  1020.5 hPa North 21.9 mph /  35.2 km/h 21.9 mph /  35.2 km/h 56 % 0.00 in /  0 mm 396.0 W/m2 CLR
16:02 49.0 °F /  9.4 °C 33.5 °F /  0.8 °C 30.14 in /  1020.5 hPa North 23.0 mph /  37 km/h 23.0 mph /  37 km/h 55 % 0.00 in /  0 mm 378.0 W/m2 CLR
16:07 50.0 °F /  10 °C 34.5 °F /  1.4 °C 30.14 in /  1020.5 hPa North 21.9 mph /  35.2 km/h 21.9 mph /  35.2 km/h 55 % 0.00 in /  0 mm 367.0 W/m2 CLR
16:12 50.0 °F /  10 °C 34.9 °F /  1.6 °C 30.14 in /  1020.5 hPa North 21.0 mph /  33.8 km/h 21.0 mph /  33.8 km/h 56 % 0.00 in /  0 mm 359.0 W/m2 CLR
16:17 49.0 °F /  9.4 °C 33.5 °F /  0.8 °C 30.14 in /  1020.5 hPa North 19.6 mph /  31.5 km/h 19.6 mph /  31.5 km/h 55 % 0.00 in /  0 mm 341.0 W/m2 CLR
16:22 49.0 °F /  9.4 °C 34.0 °F /  1.1 °C 30.14 in /  1020.5 hPa NNW 30.0 mph /  48.3 km/h 30.0 mph /  48.3 km/h 56 % 0.00 in /  0 mm 330.0 W/m2 CLR
16:27 49.0 °F /  9.4 °C 34.0 °F /  1.1 °C 30.14 in /  1020.5 hPa North 21.9 mph /  35.2 km/h 21.9 mph /  35.2 km/h 56 % 0.00 in /  0 mm 318.0 W/m2 CLR
16:32 49.0 °F /  9.4 °C 34.4 °F /  1.3 °C 30.14 in /  1020.5 hPa North 19.6 mph /  31.5 km/h 19.6 mph /  31.5 km/h 57 % 0.00 in /  0 mm 301.0 W/m2 CLR
16:37 48.0 °F /  8.9 °C 33.5 °F /  0.8 °C 30.14 in /  1020.5 hPa NNW 21.9 mph /  35.2 km/h 21.9 mph /  35.2 km/h 57 % 0.00 in /  0 mm 51.0 W/m2 CLR
16:42 48.0 °F /  8.9 °C 33.9 °F /  1.1 °C 30.14 in /  1020.5 hPa NNW 21.0 mph /  33.8 km/h 21.0 mph /  33.8 km/h 58 % 0.00 in /  0 mm 265.0 W/m2 CLR
16:47 49.0 °F /  9.4 °C 34.0 °F /  1.1 °C 30.14 in /  1020.5 hPa NNW 28.8 mph /  46.3 km/h 28.8 mph /  46.3 km/h 56 % 0.00 in /  0 mm 250.0 W/m2 CLR
16:52 48.0 °F /  8.9 °C 33.0 °F /  0.6 °C 30.14 in /  1020.5 hPa NNW 20.7 mph /  33.3 km/h 20.7 mph /  33.3 km/h 56 % 0.00 in /  0 mm 234.0 W/m2 CLR
16:57 48.0 °F /  8.9 °C 32.6 °F /  0.3 °C 30.14 in /  1020.5 hPa North 25.3 mph /  40.7 km/h 25.3 mph /  40.7 km/h 55 % 0.00 in /  0 mm 174.0 W/m2 CLR
17:02 48.0 °F /  8.9 °C 33.0 °F /  0.6 °C 30.14 in /  1020.5 hPa NW 23.0 mph /  37 km/h 23.0 mph /  37 km/h 56 % 0.00 in /  0 mm 199.0 W/m2 CLR
17:07 48.0 °F /  8.9 °C 33.5 °F /  0.8 °C 30.14 in /  1020.5 hPa North 19.6 mph /  31.5 km/h 19.6 mph /  31.5 km/h 57 % 0.00 in /  0 mm 179.0 W/m2 CLR
17:12 48.0 °F /  8.9 °C 34.3 °F /  1.3 °C 30.14 in /  1020.5 hPa NW 27.6 mph /  44.4 km/h 27.6 mph /  44.4 km/h 59 % 0.00 in /  0 mm 163.0 W/m2 CLR
17:17 47.0 °F /  8.3 °C 33.8 °F /  1 °C 30.14 in /  1020.5 hPa North 27.0 mph /  43.5 km/h 27.0 mph /  43.5 km/h 60 % 0.00 in /  0 mm 116.0 W/m2 CLR
17:22 47.0 °F /  8.3 °C 34.2 °F /  1.2 °C 30.15 in /  1020.9 hPa North 17.3 mph /  27.8 km/h 17.3 mph /  27.8 km/h 61 % 0.00 in /  0 mm 44.0 W/m2 FEW
17:27 47.0 °F /  8.3 °C 33.8 °F /  1 °C 30.15 in /  1020.9 hPa NNW 26.5 mph /  42.6 km/h 26.5 mph /  42.6 km/h 60 % 0.00 in /  0 mm 39.0 W/m2 BKN
17:32 46.0 °F /  7.8 °C 32.9 °F /  0.5 °C 30.15 in /  1020.9 hPa NNW 26.5 mph /  42.6 km/h 26.5 mph /  42.6 km/h 60 % 0.00 in /  0 mm 28.0 W/m2 BKN
17:37 46.0 °F /  7.8 °C 32.9 °F /  0.5 °C 30.15 in /  1020.9 hPa NNW 19.6 mph /  31.5 km/h 19.6 mph /  31.5 km/h 60 % 0.00 in /  0 mm 40.0 W/m2 BKN
17:42 46.0 °F /  7.8 °C 33.3 °F /  0.7 °C 30.16 in /  1021.2 hPa North 26.5 mph /  42.6 km/h 26.5 mph /  42.6 km/h 61 % 0.00 in /  0 mm 58.0 W/m2 SCT
17:47 46.0 °F /  7.8 °C 33.3 °F /  0.7 °C 30.16 in /  1021.2 hPa NW 19.6 mph /  31.5 km/h 19.6 mph /  31.5 km/h 61 % 0.00 in /  0 mm 63.0 W/m2 SCT
17:52 46.0 °F /  7.8 °C 33.3 °F /  0.7 °C 30.16 in /  1021.2 hPa NNW 17.3 mph /  27.8 km/h 17.3 mph /  27.8 km/h 61 % 0.00 in /  0 mm 47.0 W/m2 SCT
17:57 46.0 °F /  7.8 °C 33.7 °F /  0.9 °C 30.16 in /  1021.2 hPa NNW 20.7 mph /  33.3 km/h 20.7 mph /  33.3 km/h 62 % 0.00 in /  0 mm 39.0 W/m2 BKN
18:02 45.0 °F /  7.2 °C 33.2 °F /  0.7 °C 30.16 in /  1021.2 hPa North 23.0 mph /  37 km/h 23.0 mph /  37 km/h 63 % 0.00 in /  0 mm 21.0 W/m2 BKN
18:07 45.0 °F /  7.2 °C 33.5 °F /  0.8 °C 30.16 in /  1021.2 hPa NNW 19.6 mph /  31.5 km/h 19.6 mph /  31.5 km/h 64 % 0.00 in /  0 mm 16.0 W/m2 BKN
18:12 45.0 °F /  7.2 °C 33.9 °F /  1.1 °C 30.16 in /  1021.2 hPa NNW 20.0 mph /  32.2 km/h 20.0 mph /  32.2 km/h 65 % 0.00 in /  0 mm 12.0 W/m2 BKN
18:17 45.0 °F /  7.2 °C 33.9 °F /  1.1 °C 30.16 in /  1021.2 hPa North 24.2 mph /  38.9 km/h 24.2 mph /  38.9 km/h 65 % 0.00 in /  0 mm 11.0 W/m2 BKN
18:22 44.0 °F /  6.7 °C 33.4 °F /  0.8 °C 30.16 in /  1021.2 hPa NNW 19.6 mph /  31.5 km/h 19.6 mph /  31.5 km/h 66 % 0.00 in /  0 mm 7.0 W/m2 BKN
18:27 44.0 °F /  6.7 °C 33.4 °F /  0.8 °C 30.17 in /  1021.6 hPa NW 19.6 mph /  31.5 km/h 19.6 mph /  31.5 km/h 66 % 0.00 in /  0 mm 5.0 W/m2 OVC
18:32 44.0 °F /  6.7 °C 33.4 °F /  0.8 °C 30.17 in /  1021.6 hPa NW 19.6 mph /  31.5 km/h 19.6 mph /  31.5 km/h 66 % 0.00 in /  0 mm 0.0 W/m2 OVC
18:37 44.0 °F /  6.7 °C 33.4 °F /  0.8 °C 30.18 in /  1021.9 hPa NNW 21.0 mph /  33.8 km/h 21.0 mph /  33.8 km/h 66 % 0.00 in /  0 mm 0.0 W/m2 OVC
18:42 44.0 °F /  6.7 °C 33.4 °F /  0.8 °C 30.18 in /  1021.9 hPa NNW 16.1 mph /  25.9 km/h 16.1 mph /  25.9 km/h 66 % 0.00 in /  0 mm 0.0 W/m2 CLR
18:47 44.0 °F /  6.7 °C 33.7 °F /  0.9 °C 30.18 in /  1021.9 hPa NNW 18.4 mph /  29.6 km/h 18.4 mph /  29.6 km/h 67 % 0.00 in /  0 mm 0.0 W/m2 CLR
18:52 43.0 °F /  6.1 °C 33.2 °F /  0.7 °C 30.18 in /  1021.9 hPa NNW 18.4 mph /  29.6 km/h 18.4 mph /  29.6 km/h 68 % 0.00 in /  0 mm 0.0 W/m2 CLR
18:57 43.0 °F /  6.1 °C 33.2 °F /  0.7 °C 30.18 in /  1021.9 hPa NNW 19.6 mph /  31.5 km/h 19.6 mph /  31.5 km/h 68 % 0.00 in /  0 mm 0.0 W/m2 CLR
19:02 43.0 °F /  6.1 °C 33.5 °F /  0.8 °C 30.19 in /  1022.2 hPa North 16.1 mph /  25.9 km/h 16.1 mph /  25.9 km/h 69 % 0.00 in /  0 mm 0.0 W/m2 CLR
19:07 43.0 °F /  6.1 °C 33.5 °F /  0.8 °C 30.19 in /  1022.2 hPa NW 17.3 mph /  27.8 km/h 17.3 mph /  27.8 km/h 69 % 0.00 in /  0 mm 0.0 W/m2 CLR
19:12 43.0 °F /  6.1 °C 33.5 °F /  0.8 °C 30.19 in /  1022.2 hPa NNW 19.6 mph /  31.5 km/h 19.6 mph /  31.5 km/h 69 % 0.00 in /  0 mm 0.0 W/m2 CLR
19:17 43.0 °F /  6.1 °C 33.9 °F /  1.1 °C 30.19 in /  1022.2 hPa NNW 27.6 mph /  44.4 km/h 27.6 mph /  44.4 km/h 70 % 0.00 in /  0 mm 0.0 W/m2 CLR
19:22 43.0 °F /  6.1 °C 33.9 °F /  1.1 °C 30.19 in /  1022.2 hPa North 21.9 mph /  35.2 km/h 21.9 mph /  35.2 km/h 70 % 0.00 in /  0 mm 0.0 W/m2 CLR
19:27 43.0 °F /  6.1 °C 33.9 °F /  1.1 °C 30.19 in /  1022.2 hPa NW 16.1 mph /  25.9 km/h 16.1 mph /  25.9 km/h 70 % 0.00 in /  0 mm 0.0 W/m2 CLR
19:32 42.0 °F /  5.6 °C 32.9 °F /  0.5 °C 30.19 in /  1022.2 hPa WNW 13.8 mph /  22.2 km/h 13.8 mph /  22.2 km/h 70 % 0.00 in /  0 mm 0.0 W/m2 CLR
19:37 42.0 °F /  5.6 °C 32.9 °F /  0.5 °C 30.20 in /  1022.6 hPa NW 15.0 mph /  24.1 km/h 15.0 mph /  24.1 km/h 70 % 0.00 in /  0 mm 0.0 W/m2 CLR
19:42 42.0 °F /  5.6 °C 32.9 °F /  0.5 °C 30.20 in /  1022.6 hPa NW 18.0 mph /  29 km/h 18.0 mph /  29 km/h 70 % 0.00 in /  0 mm 0.0 W/m2 CLR
19:47 42.0 °F /  5.6 °C 32.9 °F /  0.5 °C 30.20 in /  1022.6 hPa NNW 18.4 mph /  29.6 km/h 18.4 mph /  29.6 km/h 70 % 0.00 in /  0 mm 0.0 W/m2 CLR
19:52 42.0 °F /  5.6 °C 33.3 °F /  0.7 °C 30.20 in /  1022.6 hPa NW 13.8 mph /  22.2 km/h 13.8 mph /  22.2 km/h 71 % 0.00 in /  0 mm 0.0 W/m2 CLR
19:57 42.0 °F /  5.6 °C 33.3 °F /  0.7 °C 30.20 in /  1022.6 hPa NNW 15.0 mph /  24.1 km/h 15.0 mph /  24.1 km/h 71 % 0.00 in /  0 mm 0.0 W/m2 CLR
20:02 42.0 °F /  5.6 °C 33.3 °F /  0.7 °C 30.19 in /  1022.2 hPa NNW 20.7 mph /  33.3 km/h 20.7 mph /  33.3 km/h 71 % 0.00 in /  0 mm 0.0 W/m2 CLR
20:07 42.0 °F /  5.6 °C 33.6 °F /  0.9 °C 30.19 in /  1022.2 hPa NW 19.6 mph /  31.5 km/h 19.6 mph /  31.5 km/h 72 % 0.00 in /  0 mm 0.0 W/m2 CLR
20:12 42.0 °F /  5.6 °C 33.3 °F /  0.7 °C 30.20 in /  1022.6 hPa WNW 15.0 mph /  24.1 km/h 15.0 mph /  24.1 km/h 71 % 0.00 in /  0 mm 0.0 W/m2 CLR
20:17 41.0 °F /  5 °C 32.3 °F /  0.2 °C 30.20 in /  1022.6 hPa NW 19.6 mph /  31.5 km/h 19.6 mph /  31.5 km/h 71 % 0.00 in /  0 mm 0.0 W/m2 CLR
20:22 41.0 °F /  5 °C 32.3 °F /  0.2 °C 30.20 in /  1022.6 hPa NW 15.0 mph /  24.1 km/h 15.0 mph /  24.1 km/h 71 % 0.00 in /  0 mm 0.0 W/m2 CLR
20:27 41.0 °F /  5 °C 32.7 °F /  0.4 °C 30.20 in /  1022.6 hPa NW 15.0 mph /  24.1 km/h 15.0 mph /  24.1 km/h 72 % 0.00 in /  0 mm 0.0 W/m2 CLR
20:32 41.0 °F /  5 °C 32.7 °F /  0.4 °C 30.20 in /  1022.6 hPa NW 15.0 mph /  24.1 km/h 15.0 mph /  24.1 km/h 72 % 0.00 in /  0 mm 0.0 W/m2 CLR
20:37 41.0 °F /  5 °C 33.0 °F /  0.6 °C 30.20 in /  1022.6 hPa NNW 16.0 mph /  25.7 km/h 16.0 mph /  25.7 km/h 73 % 0.00 in /  0 mm 0.0 W/m2 CLR
20:43 41.0 °F /  5 °C 33.0 °F /  0.6 °C 30.20 in /  1022.6 hPa NNW 17.3 mph /  27.8 km/h 17.3 mph /  27.8 km/h 73 % 0.00 in /  0 mm 0.0 W/m2 CLR
20:48 41.0 °F /  5 °C 33.0 °F /  0.6 °C 30.20 in /  1022.6 hPa NNW 12.7 mph /  20.4 km/h 12.7 mph /  20.4 km/h 73 % 0.00 in /  0 mm 0.0 W/m2 CLR
20:53 41.0 °F /  5 °C 33.0 °F /  0.6 °C 30.20 in /  1022.6 hPa NW 16.0 mph /  25.7 km/h 16.0 mph /  25.7 km/h 73 % 0.00 in /  0 mm 0.0 W/m2 CLR
20:58 41.0 °F /  5 °C 33.0 °F /  0.6 °C 30.20 in /  1022.6 hPa NNW 12.7 mph /  20.4 km/h 12.7 mph /  20.4 km/h 73 % 0.00 in /  0 mm 0.0 W/m2 CLR
21:03 41.0 °F /  5 °C 33.3 °F /  0.7 °C 30.20 in /  1022.6 hPa North 18.4 mph /  29.6 km/h 18.4 mph /  29.6 km/h 74 % 0.00 in /  0 mm 0.0 W/m2 CLR
21:08 41.0 °F /  5 °C 33.3 °F /  0.7 °C 30.21 in /  1022.9 hPa NW 16.1 mph /  25.9 km/h 16.1 mph /  25.9 km/h 74 % 0.00 in /  0 mm 0.0 W/m2 CLR
21:13 41.0 °F /  5 °C 33.7 °F /  0.9 °C 30.21 in /  1022.9 hPa NNW 18.4 mph /  29.6 km/h 18.4 mph /  29.6 km/h 75 % 0.00 in /  0 mm 0.0 W/m2 CLR
21:18 41.0 °F /  5 °C 33.7 °F /  0.9 °C 30.20 in /  1022.6 hPa NNW 16.0 mph /  25.7 km/h 16.0 mph /  25.7 km/h 75 % 0.00 in /  0 mm 0.0 W/m2 CLR
21:23 41.0 °F /  5 °C 33.7 °F /  0.9 °C 30.21 in /  1022.9 hPa NW 13.0 mph /  20.9 km/h 13.0 mph /  20.9 km/h 75 % 0.00 in /  0 mm 0.0 W/m2 CLR
21:28 41.0 °F /  5 °C 33.7 °F /  0.9 °C 30.21 in /  1022.9 hPa WNW 15.0 mph /  24.1 km/h 15.0 mph /  24.1 km/h 75 % 0.00 in /  0 mm 0.0 W/m2 CLR
21:33 41.0 °F /  5 °C 33.7 °F /  0.9 °C 30.21 in /  1022.9 hPa NW 15.0 mph /  24.1 km/h 15.0 mph /  24.1 km/h 75 % 0.00 in /  0 mm 0.0 W/m2 CLR
21:38 40.0 °F /  4.4 °C 32.7 °F /  0.4 °C 30.21 in /  1022.9 hPa NW 10.4 mph /  16.7 km/h 10.4 mph /  16.7 km/h 75 % 0.00 in /  0 mm 0.0 W/m2 CLR
21:43 40.0 °F /  4.4 °C 32.7 °F /  0.4 °C 30.21 in /  1022.9 hPa NW 16.1 mph /  25.9 km/h 16.1 mph /  25.9 km/h 75 % 0.00 in /  0 mm 0.0 W/m2 CLR
21:48 40.0 °F /  4.4 °C 32.7 °F /  0.4 °C 30.21 in /  1022.9 hPa NNW 16.1 mph /  25.9 km/h 16.1 mph /  25.9 km/h 75 % 0.00 in /  0 mm 0.0 W/m2 CLR
21:53 40.0 °F /  4.4 °C 33.0 °F /  0.6 °C 30.20 in /  1022.6 hPa NW 15.0 mph /  24.1 km/h 15.0 mph /  24.1 km/h 76 % 0.00 in /  0 mm 0.0 W/m2 CLR
21:58 40.0 °F /  4.4 °C 33.0 °F /  0.6 °C 30.21 in /  1022.9 hPa NW 16.1 mph /  25.9 km/h 16.1 mph /  25.9 km/h 76 % 0.00 in /  0 mm 0.0 W/m2 CLR
22:03 40.0 °F /  4.4 °C 33.0 °F /  0.6 °C 30.21 in /  1022.9 hPa North 12.7 mph /  20.4 km/h 12.7 mph /  20.4 km/h 76 % 0.00 in /  0 mm 0.0 W/m2 CLR
22:08 40.0 °F /  4.4 °C 33.0 °F /  0.6 °C 30.21 in /  1022.9 hPa NW 12.7 mph /  20.4 km/h 12.7 mph /  20.4 km/h 76 % 0.00 in /  0 mm 0.0 W/m2 CLR
22:13 40.0 °F /  4.4 °C 33.0 °F /  0.6 °C 30.21 in /  1022.9 hPa NW 15.0 mph /  24.1 km/h 15.0 mph /  24.1 km/h 76 % 0.00 in /  0 mm 0.0 W/m2 CLR
22:18 40.0 °F /  4.4 °C 33.0 °F /  0.6 °C 30.21 in /  1022.9 hPa WNW 16.1 mph /  25.9 km/h 16.1 mph /  25.9 km/h 76 % 0.00 in /  0 mm 0.0 W/m2 CLR
22:23 40.0 °F /  4.4 °C 33.0 °F /  0.6 °C 30.21 in /  1022.9 hPa WNW 10.4 mph /  16.7 km/h 10.4 mph /  16.7 km/h 76 % 0.00 in /  0 mm 0.0 W/m2 CLR
22:28 40.0 °F /  4.4 °C 33.0 °F /  0.6 °C 30.21 in /  1022.9 hPa West 11.5 mph /  18.5 km/h 11.5 mph /  18.5 km/h 76 % 0.00 in /  0 mm 0.0 W/m2 CLR
22:33 40.0 °F /  4.4 °C 33.0 °F /  0.6 °C 30.21 in /  1022.9 hPa WNW 10.4 mph /  16.7 km/h 10.4 mph /  16.7 km/h 76 % 0.00 in /  0 mm 0.0 W/m2 CLR
22:38 39.0 °F /  3.9 °C 32.4 °F /  0.2 °C 30.22 in /  1023.2 hPa West 10.4 mph /  16.7 km/h 10.4 mph /  16.7 km/h 77 % 0.00 in /  0 mm 0.0 W/m2 CLR
22:43 39.0 °F /  3.9 °C 32.4 °F /  0.2 °C 30.22 in /  1023.2 hPa West 9.2 mph /  14.8 km/h 9.2 mph /  14.8 km/h 77 % 0.00 in /  0 mm 0.0 W/m2 CLR
22:48 39.0 °F /  3.9 °C 32.7 °F /  0.4 °C 30.22 in /  1023.2 hPa WNW 8.1 mph /  13 km/h 8.1 mph /  13 km/h 78 % 0.00 in /  0 mm 0.0 W/m2 CLR
22:53 39.0 °F /  3.9 °C 32.7 °F /  0.4 °C 30.22 in /  1023.2 hPa West 10.4 mph /  16.7 km/h 10.4 mph /  16.7 km/h 78 % 0.00 in /  0 mm 0.0 W/m2 CLR
22:54 39.0 °F /  3.9 °C 32.7 °F /  0.4 °C 30.22 in /  1023.2 hPa West 9.2 mph /  14.8 km/h 9.2 mph /  14.8 km/h 78 % 0.00 in /  0 mm 0.0 W/m2 CLR
22:59 38.0 °F /  3.3 °C 32.1 °F /  0.1 °C 30.22 in /  1023.2 hPa WNW 10.4 mph /  16.7 km/h 10.4 mph /  16.7 km/h 79 % 0.00 in /  0 mm 0.0 W/m2 CLR
23:04 38.0 °F /  3.3 °C 32.1 °F /  0.1 °C 30.22 in /  1023.2 hPa NW 8.1 mph /  13 km/h 8.1 mph /  13 km/h 79 % 0.00 in /  0 mm 0.0 W/m2 CLR
23:09 38.0 °F /  3.3 °C 32.4 °F /  0.2 °C 30.22 in /  1023.2 hPa WNW 11.5 mph /  18.5 km/h 11.5 mph /  18.5 km/h 80 % 0.00 in /  0 mm 0.0 W/m2 CLR
23:14 38.0 °F /  3.3 °C 32.1 °F /  0.1 °C 30.22 in /  1023.2 hPa NW 10.4 mph /  16.7 km/h 10.4 mph /  16.7 km/h 79 % 0.00 in /  0 mm 0.0 W/m2 CLR
23:19 38.0 °F /  3.3 °C 32.4 °F /  0.2 °C 30.22 in /  1023.2 hPa NW 13.8 mph /  22.2 km/h 13.8 mph /  22.2 km/h 80 % 0.00 in /  0 mm 0.0 W/m2 CLR
23:24 38.0 °F /  3.3 °C 32.1 °F /  0.1 °C 30.22 in /  1023.2 hPa NW 9.2 mph /  14.8 km/h 9.2 mph /  14.8 km/h 79 % 0.00 in /  0 mm 0.0 W/m2 CLR
23:29 39.0 °F /  3.9 °C 33.0 °F /  0.6 °C 30.22 in /  1023.2 hPa NW 9.2 mph /  14.8 km/h 9.2 mph /  14.8 km/h 79 % 0.00 in /  0 mm 0.0 W/m2 CLR
23:34 39.0 °F /  3.9 °C 33.0 °F /  0.6 °C 30.21 in /  1022.9 hPa WNW 10.4 mph /  16.7 km/h 10.4 mph /  16.7 km/h 79 % 0.00 in /  0 mm 0.0 W/m2 CLR
23:39 39.0 °F /  3.9 °C 33.4 °F /  0.8 °C 30.21 in /  1022.9 hPa NW 11.5 mph /  18.5 km/h 11.5 mph /  18.5 km/h 80 % 0.00 in /  0 mm 0.0 W/m2 CLR
23:44 39.0 °F /  3.9 °C 33.0 °F /  0.6 °C 30.21 in /  1022.9 hPa NW 12.7 mph /  20.4 km/h 12.7 mph /  20.4 km/h 79 % 0.00 in /  0 mm 0.0 W/m2 CLR
23:49 39.0 °F /  3.9 °C 33.0 °F /  0.6 °C 30.21 in /  1022.9 hPa NW 11.5 mph /  18.5 km/h 11.5 mph /  18.5 km/h 79 % 0.00 in /  0 mm 0.0 W/m2 CLR
23:54 39.0 °F /  3.9 °C 33.4 °F /  0.8 °C 30.21 in /  1022.9 hPa WNW 13.8 mph /  22.2 km/h 13.8 mph /  22.2 km/h 80 % 0.00 in /  0 mm 0.0 W/m2 CLR
23:59 39.0 °F /  3.9 °C 33.4 °F /  0.8 °C 30.21 in /  1022.9 hPa WNW 10.4 mph /  16.7 km/h 10.4 mph /  16.7 km/h 80 % 0.00 in /  0 mm 0.0 W/m2 CLR
Lo Temps de Massalio
Compliments of Weather Underground - 1.25 mb